Tiempo atmosférico en la estación meteorológica de San Roque, Cádiz (1 m.)



Fecha
DESCASC
Temp. máxima en grados centígrados (hora)
DESCASC
Temp. mínima en grados centígrados (hora)
DESCASC
Temp. media en grados centígrados
DESCASC
Racha de viento máxima en m/sg (hora)
DESCASC
Velocidad máxima media en intervalos de 10 minutos(hora)
DESCASC
Precipitaciones diarias en mm
DESCASC
Precipitaciones de 00:00 a 06:00 en mm
DESCASC
Precipitaciones de 06:00 a 12:00 en mm
DESCASC
Precipitaciones de 12:00 a 18:00 en mm
DESCASC
Precipitaciones de 18:00 a 24:00 en mm
DESCASC
31-03-2020 18 (17:20) 12.6 (23:59) 15.3 11.67 (17:30) 9.44 (02:20) 53.6 24.6 23.8 4.4 0.8
30-03-2020 20.4 (16:40) 10 (08:10) 15.2 9.72 (15:40) 6.39 (15:20) 0.4 0 0 0 0.4
29-03-2020 18.1 (13:30) 9.6 (00:00) 13.9 7.5 (03:10) 4.72 (03:20) 0 0 0 0 0
28-03-2020 17.7 (12:00) 8.4 (00:00) 13.1 10.56 (14:00) 8.89 (14:00) 0 0 0 0 0
27-03-2020 20.8 (16:40) 8.6 (00:00) 14.7 8.89 (16:00) 6.11 (16:00) 0 0 0 0 0
26-03-2020 21.5 (14:50) 8.1 (00:00) 14.8 12.78 (15:00) 8.33 (15:30) 0 0 0 0 0
25-03-2020 17.1 (16:30) 10.1 (00:00) 13.6 9.44 (08:50) 7.5 (08:50) 3.6 0.8 2.8 0 0
24-03-2020 14.9 (00:40) 11.6 (00:00) 13.3 8.61 (00:20) 5.56 (00:20) 10.8 0.8 8.8 1 0.2
23-03-2020 15.7 (12:40) 8.5 (00:00) 12.1 9.44 (14:40) 6.11 (16:30) 1 0.2 0.4 0 0.4
22-03-2020 14.9 (15:20) 9.9 (05:50) 12.4 4.72 (13:30) 3.33 (13:30) 9 4.4 0 4.4 0.2
21-03-2020 16.5 (13:40) 8.7 (00:00) 12.6 13.06 (14:40) 10.56 (00:20) 46.8 22.8 0 13.8 10.2
20-03-2020 16.5 (16:10) 15.1 (00:00) 15.8 13.33 (00:40) 10.28 (23:59) 3.6 0 0 0 3.6
19-03-2020 16.8 (16:40) 15.4 (00:00) 16.1 13.89 (22:50) 11.11 (23:00) 0 0 0 0 0
18-03-2020 16.9 (16:20) 15.7 (00:00) 16.3 19.44 (01:00) 14.72 (14:10) 0 0 0 0 0
17-03-2020 16.9 (15:30) 9.1 (00:00) 13 20.83 (23:50) 14.17 (23:50) 9.2 4.4 4.6 0 0.2
16-03-2020 18.4 (15:40) 10.9 (00:00) 14.6 12.5 (16:20) 8.33 (16:30) 0 0 0 0 0
15-03-2020 20.3 (12:50) 12.8 (00:00) 16.5 7.22 (00:40) 5.56 (00:40) 0 0 0 0 0
14-03-2020 20.2 (16:10) 12.8 (00:00) 16.5 5.83 (14:40) 4.72 (14:40) 0 0 0 0 0
13-03-2020 23.5 (15:30) 11.3 (04:30) 17.4 11.94 (12:30) 8.33 (11:30) 0 0 0 0 0
12-03-2020 22.9 (13:30) 9.8 (00:00) 16.3 5.56 (01:10) 3.89 (01:10) 0 0 0 0 0
11-03-2020 20.7 (16:30) 11.3 (00:00) 16 5.56 (00:20) 3.61 (00:20) 0 0 0 0 0
10-03-2020 20.6 (14:30) 11.4 (00:00) 16 7.78 (15:50) 5.56 (15:50) 0 0 0 0 0
09-03-2020 27.3 (15:50) 11.3 (00:00) 19.3 10 (17:30) 6.39 (20:20) 0 0 0 0 0
08-03-2020 18.8 (15:30) 6.5 (00:00) 12.6 5.83 (03:20) 3.89 (03:20) 0 0 0 0 0
07-03-2020 19.4 (14:40) 8.1 (00:00) 13.8 8.33 (01:10) 5 (01:10) 0 0 0 0 0
06-03-2020 19.9 (16:20) 10.9 (00:00) 15.4 14.17 (12:50) 8.61 (12:50) 0 0 0 0 0
05-03-2020 20.2 (14:10) 12.6 (00:00) 16.4 14.44 (12:50) 8.61 (12:50) 0 0 0 0 0
04-03-2020 23.6 (16:10) 13.8 (00:00) 18.7 12.5 (11:20) 8.33 (13:20) 0 0 0 0 0
03-03-2020 20.6 (14:50) 9 (00:00) 14.8 13.33 (11:20) 8.61 (14:20) 0 0 0 0 0
02-03-2020 21.4 (13:30) 13.7 (00:00) 17.5 16.39 (14:30) 11.11 (16:10) 0 0 0 0 0

Gráficas

Temp. máximas Temp. mínimas Temp. medias Precipitaciones Rachas de viento máximas Velocidades máximas media en intervalos de 10 minutos

Datos horarios

Fecha y hora oficial Temperatura (ºC) Velocidad del viento (km/h) Dirección del viento Racha (km/h) Dirección de racha Precipitación (mm) Presión (hPa) Tendencia (hPa) Humedad (%)
2020-03-31 23:00:00 13.5 9 Oeste 12 Sudoeste 0.4 -- -- 95
2020-03-31 22:00:00 13.8 9 Oeste 13 Oeste 0.2 -- -- 92
2020-03-31 21:00:00 15 10 Oeste 35 Sudoeste 0.2 -- -- 89
2020-03-31 20:00:00 16.5 3 Este 16 Sudoeste 0 -- -- 85
2020-03-31 19:00:00 17.3 6 Sudoeste 18 Oeste 0 -- -- 85
2020-03-31 18:00:00 16.4 17 Sudoeste 42 Oeste 0.8 -- -- 90
2020-03-31 17:00:00 17.6 21 Sudoeste 34 Sur 0 -- -- 84
2020-03-31 16:00:00 17.7 18 Sur 35 Sudoeste 0.4 -- -- 88
2020-03-31 15:00:00 16.9 12 Sudoeste 40 Sur 0.6 -- -- 89
2020-03-31 14:00:00 16.7 7 Sudeste 20 Oeste 0 -- -- 89
2020-03-31 13:00:00 15.8 15 Oeste 24 Oeste 2.6 -- -- 95
2020-03-31 12:00:00 14.4 7 Sudoeste 23 Sudoeste 7.6 -- -- 97
2020-03-31 11:00:00 14.3 12 Sudoeste 32 Sudoeste 2 -- -- 98
2020-03-31 10:00:00 14.3 15 Sur 21 Sudoeste 0.8 -- -- 98
2020-03-31 09:00:00 14.1 9 Sudoeste 25 Sudoeste 12 -- -- 98
2020-03-31 08:00:00 14.2 12 Sudoeste 31 Sur 1.2 -- -- 96
2020-03-31 07:00:00 14.6 23 Sur 36 Sudeste 0.2 -- -- 96
2020-03-31 06:00:00 14.1 16 Sudeste 28 Sudeste 0.6 -- -- 96
2020-03-31 05:00:00 13.8 7 Sur 20 Sudeste 0.8 -- -- 96
2020-03-31 04:00:00 13.5 16 Sudeste 33 Sudeste 2.4 -- -- 95
2020-03-31 03:00:00 13.8 27 Sudeste 40 Sudeste 4 -- -- 94
2020-03-31 02:00:00 13.9 26 Sudeste 40 Sur 10.8 -- -- 94
2020-03-31 01:00:00 14.6 22 Sudeste 28 Sudeste 6 -- -- 91
2020-03-31 00:00:00 15.7 12 Sur 20 Sur 0.2 -- -- 87
2020-03-30 23:00:00 15.8 14 Sudeste 21 Sur 0.2 -- -- 85
2020-03-30 22:00:00 16.2 15 Sur 25 Sur 0 -- -- 83
2020-03-30 21:00:00 16.7 6 Sudoeste 14 Sudoeste 0 -- -- 65
2020-03-30 20:00:00 18 4 Noroeste 18 Oeste 0 -- -- 64
2020-03-30 19:00:00 18.9 6 Noroeste 22 Noroeste 0 -- -- 62
2020-03-30 18:00:00 19.2 14 Oeste 25 Sudoeste 0 -- -- 55
2020-03-30 17:00:00 19.9 14 Oeste 27 Oeste 0 -- -- 56
2020-03-30 16:00:00 20 14 Sudoeste 35 Sur 0 -- -- 56
2020-03-30 15:00:00 18.2 15 Sudeste 22 Sur 0 -- -- 76
2020-03-30 14:00:00 17.8 19 Sur 23 Sur 0 -- -- 79
2020-03-30 13:00:00 16.8 16 Sudeste 19 Sudeste 0 -- -- 83
2020-03-30 12:00:00 16.4 6 Sur 13 Sur 0 -- -- 81
2020-03-30 11:00:00 13.8 9 Noroeste 14 Noroeste 0 -- -- 88
2020-03-30 10:00:00 11.4 7 Noroeste 12 Noroeste 0 -- -- 97
2020-03-30 09:00:00 10.2 5 Noroeste 14 Norte 0 -- -- 98
2020-03-30 08:00:00 10.1 9 Noroeste 13 Noroeste 0 -- -- 97
2020-03-30 07:00:00 10.6 8 Noroeste 11 Noroeste 0 -- -- 97
2020-03-30 06:00:00 10.8 5 Noroeste 10 Noroeste 0 -- -- 96
2020-03-30 05:00:00 11 0 Calma 6 Noroeste 0 -- -- 94
2020-03-30 04:00:00 11.3 2 Noroeste 6 Noroeste 0 -- -- 93
2020-03-30 03:00:00 12.7 3 Norte 6 Noroeste 0 -- -- 93
2020-03-30 02:00:00 13.1 3 Norte 6 Noroeste 0 -- -- 93
2020-03-30 01:00:00 13.4 5 Noroeste 7 Norte 0 -- -- 91
2020-03-30 00:00:00 14.3 3 Noroeste 5 Oeste 0 -- -- 88
2020-03-29 23:00:00 14.5 4 Oeste 6 Oeste 0 -- -- 87
2020-03-29 22:00:00 14.7 4 Oeste 9 Sur 0 -- -- 86
2020-03-29 21:00:00 15.3 6 Sudoeste 15 Sur 0 -- -- 82
2020-03-29 20:00:00 16 9 Sur 12 Sur 0 -- -- 79
2020-03-29 19:00:00 16.6 10 Sur 14 Sur 0 -- -- 77
2020-03-29 18:00:00 17.6 10 Sur 15 Sur 0 -- -- 72
2020-03-29 17:00:00 16.9 8 Sudeste 13 Sudeste 0 -- -- 75
2020-03-29 16:00:00 17.7 12 Sudeste 14 Sudeste 0 -- -- 72
2020-03-29 15:00:00 17.8 10 Sudeste 15 Sudeste 0 -- -- 71
2020-03-29 14:00:00 17.8 8 Este 12 Este 0 -- -- 73
2020-03-29 13:00:00 17.6 5 Este 11 Este 0 -- -- 76
2020-03-29 12:00:00 17.3 6 Este 12 Este 0 -- -- 76
2020-03-29 11:00:00 14.5 3 Norte 14 Noroeste 0 -- -- 82
2020-03-29 10:00:00 11.6 9 Noroeste 16 Noroeste 0 -- -- 89
2020-03-29 09:00:00 9.6 10 Noroeste 17 Norte 0 -- -- 93
2020-03-29 08:00:00 11.2 7 Noroeste 17 Nordeste 0 -- -- 90
2020-03-29 07:00:00 13.7 12 Nordeste 19 Nordeste 0 -- -- 88
2020-03-29 06:00:00 13.8 12 Nordeste 22 Nordeste 0 -- -- 87
2020-03-29 05:00:00 13.9 10 Nordeste 22 Nordeste 0 -- -- 87
2020-03-29 03:00:00 14.1 16 Nordeste 24 Nordeste 0 -- -- 86
2020-03-29 01:00:00 14.3 15 Nordeste 23 Nordeste 0 -- -- 86
2020-03-29 00:00:00 14.7 9 Este 26 Este 0 -- -- 85
2020-03-28 23:00:00 14.7 9 Este 21 Este 0 -- -- 84
2020-03-28 22:00:00 14.8 11 Este 25 Este 0 -- -- 85
2020-03-28 21:00:00 14.8 12 Este 27 Este 0 -- -- 85
2020-03-28 20:00:00 14.9 9 Este 19 Este 0 -- -- 84
2020-03-28 19:00:00 15.3 9 Este 21 Este 0 -- -- 82
2020-03-28 18:00:00 15.5 9 Este 26 Este 0 -- -- 84
2020-03-28 17:00:00 15.5 9 Este 33 Este 0 -- -- 83
2020-03-28 16:00:00 15.5 24 Este 34 Este 0 -- -- 85
2020-03-28 15:00:00 15.6 25 Este 38 Este 0 -- -- 86
2020-03-28 14:00:00 16.2 32 Este 38 Este 0 -- -- 85
2020-03-28 13:00:00 17.1 26 Este 35 Este 0 -- -- 84
2020-03-28 12:00:00 17.7 11 Este 17 Este 0 -- -- 78
2020-03-28 11:00:00 16.6 8 Este 18 Este 0 -- -- 87
2020-03-28 10:00:00 13.9 7 Noroeste 16 Norte 0 -- -- 84
2020-03-28 09:00:00 10.8 12 Noroeste 19 Noroeste 0 -- -- 95
2020-03-28 08:00:00 8.6 13 Noroeste 20 Noroeste 0 -- -- 97
2020-03-28 07:00:00 8.7 13 Noroeste 18 Noroeste 0 -- -- 96
2020-03-28 06:00:00 8.8 13 Noroeste 20 Noroeste 0 -- -- 96
2020-03-28 05:00:00 9.4 9 Noroeste 16 Norte 0 -- -- 94
2020-03-28 04:00:00 9.9 8 Noroeste 15 Noroeste 0 -- -- 94
2020-03-28 03:00:00 10.4 9 Noroeste 15 Noroeste 0 -- -- 94
2020-03-28 02:00:00 10.6 9 Noroeste 15 Noroeste 0 -- -- 92
2020-03-28 01:00:00 11.6 6 Noroeste 13 Noroeste 0 -- -- 90
2020-03-28 00:00:00 11.7 7 Noroeste 10 Norte 0 -- -- 89
2020-03-27 23:00:00 12.5 4 Noroeste 12 Noroeste 0 -- -- 85
2020-03-27 22:00:00 13 5 Norte 10 Noroeste 0 -- -- 83
2020-03-27 21:00:00 14.1 4 Noroeste 11 Noroeste 0 -- -- 74
2020-03-27 20:00:00 15.2 7 Oeste 24 Oeste 0 -- -- 69
2020-03-27 19:00:00 18 14 Oeste 22 Oeste 0 -- -- 61
2020-03-27 18:00:00 19.2 10 Oeste 27 Oeste 0 -- -- 60
2020-03-27 17:00:00 20.4 16 Oeste 31 Sudoeste 0 -- -- 50
2020-03-27 16:00:00 19.9 22 Oeste 32 Oeste 0 -- -- 55
2020-03-27 15:00:00 17.6 12 Sudeste 21 Sudeste 0 -- -- 78
2020-03-27 14:00:00 17.2 15 Sudeste 23 Sur 0 -- -- 78
2020-03-27 13:00:00 17.4 12 Sur 22 Sudoeste 0 -- -- 72
2020-03-27 12:00:00 16.8 8 Noroeste 24 Norte 0 -- -- 70
2020-03-27 11:00:00 15.8 9 Noroeste 27 Oeste 0 -- -- 75
2020-03-27 10:00:00 14.5 15 Oeste 23 Oeste 0 -- -- 81
2020-03-27 09:00:00 12.3 10 Oeste 17 Oeste 0 -- -- 97
2020-03-27 08:00:00 9.2 9 Norte 15 Norte 0 -- -- 97
2020-03-27 07:00:00 8.8 6 Norte 8 Noroeste 0 -- -- 96
2020-03-27 06:00:00 9.4 4 Noroeste 10 Norte 0 -- -- 95
2020-03-27 05:00:00 11.1 6 Noroeste 16 Oeste 0 -- -- 94
2020-03-27 04:00:00 11.8 9 Oeste 16 Oeste 0 -- -- 93
2020-03-27 03:00:00 12.7 5 Noroeste 17 Oeste 0 -- -- 93
2020-03-27 02:00:00 12.3 3 Noroeste 6 Noroeste 0 -- -- 93
2020-03-27 01:00:00 12.7 3 Sur 9 Oeste 0 -- -- 90
2020-03-27 00:00:00 13 8 Oeste 11 Norte 0 -- -- 89
2020-03-26 23:00:00 14.1 5 Noroeste 22 Oeste 0 -- -- 86
2020-03-26 22:00:00 13.7 10 Oeste 21 Oeste 0 -- -- 85
2020-03-26 21:00:00 13.7 9 Oeste 12 Oeste 0 -- -- 82
2020-03-26 20:00:00 16 9 Oeste 26 Sudoeste 0 -- -- 80
2020-03-26 19:00:00 18.2 20 Sudoeste 35 Oeste 0 -- -- 72
2020-03-26 18:00:00 20.1 21 Oeste 40 Sudoeste 0 -- -- 64
2020-03-26 17:00:00 20.3 27 Oeste 42 Oeste 0 -- -- 60
2020-03-26 16:00:00 21 27 Oeste 44 Oeste 0 -- -- 59
2020-03-26 15:00:00 21.3 28 Oeste 46 Oeste 0 -- -- 57
2020-03-26 14:00:00 20.3 22 Oeste 44 Oeste 0 -- -- 62
2020-03-26 13:00:00 19.8 20 Oeste 39 Oeste 0 -- -- 68
2020-03-26 12:00:00 18.7 17 Oeste 37 Noroeste 0 -- -- 72
2020-03-26 11:00:00 17.2 17 Oeste 35 Oeste 0 -- -- 78
2020-03-26 10:00:00 15.7 12 Sudoeste 23 Oeste 0 -- -- 82
2020-03-26 09:00:00 13.8 14 Noroeste 27 Noroeste 0 -- -- 92
2020-03-26 08:00:00 8.7 3 Noroeste 7 Noroeste 0 -- -- 98
2020-03-26 07:00:00 8.3 3 Noroeste 9 Noroeste 0 -- -- 97
2020-03-26 06:00:00 8.2 5 Noroeste 12 Norte 0 -- -- 97
2020-03-26 05:00:00 8.5 4 Noroeste 13 Noroeste 0 -- -- 97
2020-03-26 04:00:00 8.7 6 Noroeste 15 Noroeste 0 -- -- 96
2020-03-26 03:00:00 9.3 9 Noroeste 12 Noroeste 0 -- -- 96
2020-03-26 02:00:00 9.5 9 Noroeste 18 Noroeste 0 -- -- 96
2020-03-26 01:00:00 9.9 9 Noroeste 15 Noroeste 0 -- -- 95
2020-03-26 00:00:00 10.1 10 Noroeste 15 Noroeste 0 -- -- 94
2020-03-25 23:00:00 11 8 Noroeste 12 Noroeste 0 -- -- 93
2020-03-25 22:00:00 12.1 5 Noroeste 11 Nordeste 0 -- -- 89
2020-03-25 21:00:00 13.8 5 Nordeste 14 Este 0 -- -- 87
2020-03-25 20:00:00 14.5 7 Este 12 Este 0 -- -- 82
2020-03-25 19:00:00 15.6 5 Este 18 Este 0 -- -- 78
2020-03-25 18:00:00 16.8 8 Este 20 Este 0 -- -- 74
2020-03-25 17:00:00 16.8 10 Este 20 Este 0 -- -- 71
2020-03-25 16:00:00 16.7 9 Este 26 Este 0 -- -- 72
2020-03-25 15:00:00 16 22 Este 28 Este 0 -- -- 76
2020-03-25 14:00:00 15.8 19 Este 29 Este 0 -- -- 77
2020-03-25 13:00:00 15.5 10 Este 24 Este 0 -- -- 83
2020-03-25 12:00:00 15 17 Este 23 Este 0 -- -- 83
2020-03-25 11:00:00 14.6 14 Sudeste 26 Este 0 -- -- 84
2020-03-25 10:00:00 14.3 13 Este 27 Este 0 -- -- 85
2020-03-25 09:00:00 14.1 24 Este 34 Este 0.4 -- -- 85
2020-03-25 08:00:00 14.1 21 Este 30 Este 2.4 -- -- 87
2020-03-25 07:00:00 14.6 18 Sudeste 29 Sudeste 0 -- -- 87
2020-03-25 06:00:00 14.5 21 Sudeste 29 Sudeste 0.4 -- -- 91
2020-03-25 05:00:00 14.5 18 Sudeste 27 Sudeste 0.4 -- -- 92
2020-03-25 04:00:00 14.3 15 Sudeste 21 Sudeste 0 -- -- 97
2020-03-25 03:00:00 13.1 6 Norte 15 Norte 0 -- -- 99
2020-03-25 02:00:00 13.1 7 Noroeste 11 Noroeste 0 -- -- 98
2020-03-25 01:00:00 13.3 2 Norte 11 Norte 0 -- -- 97
2020-03-25 00:00:00 13.1 2 Oeste 4 Sudoeste 0 -- -- 95
2020-03-24 23:00:00 14.1 0 Calma 12 Sudeste 0 -- -- 95
2020-03-24 22:00:00 13.3 0 Calma 4 Sudoeste 0 -- -- 95
2020-03-24 21:00:00 13.6 0 Calma 16 Sur 0 -- -- 94
2020-03-24 20:00:00 14.5 10 Sudeste 13 Sudeste 0 -- -- 93
2020-03-24 19:00:00 14.2 4 Norte 9 Norte 0.2 -- -- 94
2020-03-24 18:00:00 14.3 5 Noroeste 12 Noroeste 0 -- -- 93
2020-03-24 17:00:00 14.1 7 Oeste 13 Oeste 0 -- -- 93
2020-03-24 16:00:00 14 6 Oeste 13 Oeste 0 -- -- 94
2020-03-24 15:00:00 14 10 Oeste 15 Oeste 0.2 -- -- 95
2020-03-24 14:00:00 14 5 Oeste 20 Sudoeste 0.6 -- -- 95
2020-03-24 13:00:00 14.5 14 Sudoeste 21 Sudoeste 0.2 -- -- 96
2020-03-24 12:00:00 14 5 Noroeste 11 Noroeste 0.4 -- -- 98
2020-03-24 11:00:00 12.8 6 Noroeste 14 Noroeste 1.8 -- -- 98
2020-03-24 10:00:00 12.3 10 Norte 21 Noroeste 1.8 -- -- 96
2020-03-24 09:00:00 11.8 12 Noroeste 20 Noroeste 0 -- -- 98
2020-03-24 08:00:00 11.7 10 Noroeste 18 Noroeste 3.2 -- -- 97
2020-03-24 07:00:00 12.1 4 Sudoeste 17 Noroeste 1.6 -- -- 95
2020-03-24 06:00:00 12.1 6 Oeste 10 Noroeste 0.8 -- -- 91
2020-03-24 05:00:00 12.6 4 Noroeste 12 Noroeste 0 -- -- 87
2020-03-24 04:00:00 12.8 8 Noroeste 15 Norte 0 -- -- 86
2020-03-24 03:00:00 13.2 7 Noroeste 9 Noroeste 0 -- -- 86
2020-03-24 02:00:00 14.5 2 Noroeste 15 Nordeste 0 -- -- 83
2020-03-24 01:00:00 14.8 8 Nordeste 31 Este 0 -- -- 81
2020-03-24 00:00:00 13.6 7 Este 17 Este 0 -- -- 85
2020-03-23 23:00:00 13.1 5 Noroeste 9 Noroeste 0 -- -- 86
2020-03-23 22:00:00 14.2 6 Nordeste 18 Este 0 -- -- 80
2020-03-23 21:00:00 14.1 12 Nordeste 26 Nordeste 0 -- -- 80
2020-03-23 20:00:00 14 15 Nordeste 28 Nordeste 0.4 -- -- 84
2020-03-23 19:00:00 14.1 16 Nordeste 31 Nordeste 0 -- -- 83
2020-03-23 18:00:00 13.9 22 Nordeste 33 Nordeste 0 -- -- 81
2020-03-23 17:00:00 13.3 22 Nordeste 34 Nordeste 0 -- -- 86
2020-03-23 16:00:00 15 15 Este 33 Este 0 -- -- 85
2020-03-23 15:00:00 15.7 16 Este 34 Este 0 -- -- 83
2020-03-23 14:00:00 15.6 16 Nordeste 31 Este 0 -- -- 84
2020-03-23 13:00:00 15.5 13 Este 28 Nordeste 0 -- -- 85
2020-03-23 12:00:00 14.4 11 Nordeste 23 Nordeste 0 -- -- 87
2020-03-23 11:00:00 13.2 14 Nordeste 25 Nordeste 0.4 -- -- 93
2020-03-23 10:00:00 9.8 8 Noroeste 15 Norte 0 -- -- 98
2020-03-23 09:00:00 9.2 10 Norte 19 Noroeste 0 -- -- 99
2020-03-23 08:00:00 8.6 12 Noroeste 19 Noroeste 0 -- -- 99
2020-03-23 07:00:00 8.5 10 Noroeste 17 Norte 0 -- -- 99
2020-03-23 06:00:00 8.7 9 Noroeste 17 Noroeste 0.2 -- -- 99
2020-03-23 05:00:00 8.8 9 Noroeste 19 Norte 0 -- -- 99
2020-03-23 04:00:00 9.3 12 Noroeste 18 Noroeste 0 -- -- 99
2020-03-23 03:00:00 9.9 9 Noroeste 15 Noroeste 0 -- -- 99
2020-03-23 02:00:00 10.2 9 Noroeste 15 Noroeste 0 -- -- 98
2020-03-23 01:00:00 10.8 8 Noroeste 10 Noroeste 0 -- -- 97
2020-03-23 00:00:00 11.4 5 Noroeste 8 Noroeste 0 -- -- 97
2020-03-22 23:00:00 12.1 5 Norte 8 Norte 0 -- -- 96
2020-03-22 22:00:00 12.2 4 Norte 10 Norte 0 -- -- 95
2020-03-22 21:00:00 12.9 4 Noroeste 12 Nordeste 0 -- -- 94
2020-03-22 20:00:00 13.2 7 Nordeste 11 Nordeste 0 -- -- 91
2020-03-22 19:00:00 13.5 5 Nordeste 10 Este 0.2 -- -- 91
2020-03-22 18:00:00 14.2 4 Nordeste 12 Sudeste 0.2 -- -- 89
2020-03-22 17:00:00 14.1 9 Sudeste 15 Sur 1 -- -- 91
2020-03-22 16:00:00 14.2 8 Sur 12 Sudeste 1.2 -- -- 88
2020-03-22 15:00:00 14.2 8 Sur 14 Sur 1 -- -- 89
2020-03-22 14:00:00 13.7 8 Sudeste 17 Sudeste 1 -- -- 86
2020-03-22 13:00:00 14.2 11 Sudeste 14 Sudeste 0 -- -- 84
2020-03-22 12:00:00 14.2 9 Sudeste 12 Sudeste 0 -- -- 93
2020-03-22 11:00:00 13.2 5 Sudeste 8 Sudeste 0 -- -- 99
2020-03-22 10:00:00 11.5 6 Noroeste 14 Norte 0 -- -- 100
2020-03-22 09:00:00 10.6 7 Noroeste 10 Noroeste 0 -- -- 100
2020-03-22 08:00:00 10.4 5 Noroeste 9 Noroeste 0 -- -- 100
2020-03-22 07:00:00 10.4 4 Noroeste 9 Noroeste 0 -- -- 100
2020-03-22 06:00:00 10 4 Noroeste 5 Noroeste 0 -- -- 99
2020-03-22 05:00:00 10.6 0 Calma 6 Sudoeste 0.6 -- -- 99
2020-03-22 04:00:00 10.4 4 Oeste 5 Oeste 0 -- -- 99
2020-03-22 03:00:00 10.5 0 Calma 4 Oeste 1 -- -- 98
2020-03-22 02:00:00 10.7 3 Sudoeste 6 Oeste 2.4 -- -- 98
2020-03-22 01:00:00 11.2 2 Noroeste 12 Oeste 0.4 -- -- 98
2020-03-22 00:00:00 10.9 4 Oeste 9 Noroeste 2.4 -- -- 98
2020-03-21 23:00:00 11.4 9 Oeste 15 Oeste 3.2 -- -- 98
2020-03-21 22:00:00 11.3 3 Noroeste 6 Oeste 0 -- -- 97
2020-03-21 21:00:00 11.8 3 Norte 8 Norte 0 -- -- 97
2020-03-21 20:00:00 11.6 7 Oeste 19 Sudoeste 1.6 -- -- 96
2020-03-21 19:00:00 12.3 8 Sudoeste 19 Sudoeste 3 -- -- 95
2020-03-21 18:00:00 11.8 12 Sudoeste 36 Sur 4.4 -- -- 94
2020-03-21 17:00:00 12.7 10 Sudoeste 20 Sudoeste 5 -- -- 93
2020-03-21 16:00:00 13.1 11 Oeste 36 Sudoeste 4.2 -- -- 92
2020-03-21 15:00:00 14.6 17 Oeste 47 Oeste 0.2 -- -- 75
2020-03-21 14:00:00 15.4 10 Oeste 45 Sur 0 -- -- 79
2020-03-21 13:00:00 16.1 32 Sur 44 Sur 0 -- -- 75
2020-03-21 12:00:00 14.9 12 Oeste 31 Sur 0 -- -- 81
2020-03-21 11:00:00 14.8 15 Sur 18 Sur 0 -- -- 86
2020-03-21 10:00:00 13.8 5 Este 9 Este 0 -- -- 94
2020-03-21 09:00:00 11.5 4 Norte 6 Noroeste 0 -- -- 99
2020-03-21 08:00:00 9.6 4 Norte 6 Oeste 0 -- -- 99
2020-03-21 07:00:00 8.7 2 Noroeste 5 Noroeste 0 -- -- 97
2020-03-21 06:00:00 9.8 0 Calma 11 Oeste 0 -- -- 97
2020-03-21 05:00:00 10.4 6 Oeste 15 Noroeste 0 -- -- 97
2020-03-21 04:00:00 11.5 10 Oeste 15 Oeste 0.2 -- -- 97
2020-03-21 03:00:00 12 5 Oeste 10 Oeste 0 -- -- 96
2020-03-21 02:00:00 12.6 5 Oeste 11 Oeste 1.4 -- -- 97
2020-03-21 01:00:00 13.7 11 Sudoeste 46 Sudeste 21.2 -- -- 97
2020-03-21 00:00:00 15.3 37 Sudeste 48 Sudeste 3.6 -- -- 95
2020-03-20 23:00:00 15.7 30 Sudeste 40 Sudeste 0 -- -- 93
2020-03-20 22:00:00 15.7 27 Sudeste 37 Este 0 -- -- 93
2020-03-20 21:00:00 15.6 28 Este 36 Este 0 -- -- 93
2020-03-20 20:00:00 15.6 26 Este 34 Este 0 -- -- 91
2020-03-20 19:00:00 15.7 19 Este 29 Este 0 -- -- 89
2020-03-20 18:00:00 15.9 18 Este 23 Este 0 -- -- 87
2020-03-20 17:00:00 16.3 5 Este 17 Este 0 -- -- 87
2020-03-20 16:00:00 16.4 17 Este 23 Este 0 -- -- 86
2020-03-20 15:00:00 16.2 12 Este 30 Este 0 -- -- 85
2020-03-20 14:00:00 15.5 20 Este 37 Este 0 -- -- 88
2020-03-20 13:00:00 15.4 31 Este 40 Este 0 -- -- 87
2020-03-20 12:00:00 15.7 18 Este 34 Este 0 -- -- 87
2020-03-20 11:00:00 15.5 28 Este 36 Este 0 -- -- 87
2020-03-20 10:00:00 15.4 20 Este 38 Este 0 -- -- 88
2020-03-20 09:00:00 15.2 30 Este 40 Este 0 -- -- 89
2020-03-20 08:00:00 15.2 14 Este 36 Este 0 -- -- 89
2020-03-20 07:00:00 15.3 19 Este 39 Este 0 -- -- 87
2020-03-20 06:00:00 15.4 26 Este 36 Este 0 -- -- 87
2020-03-20 05:00:00 15.4 29 Este 38 Este 0 -- -- 86
2020-03-20 04:00:00 15.5 28 Este 42 Este 0 -- -- 86
2020-03-20 03:00:00 15.4 34 Este 42 Este 0 -- -- 86
2020-03-20 02:00:00 15.4 27 Este 44 Este 0 -- -- 87
2020-03-20 01:00:00 15.6 28 Este 48 Este 0 -- -- 86
2020-03-20 00:00:00 15.7 34 Este 48 Este 0 -- -- 84
2020-03-19 23:00:00 15.8 40 Este 50 Este 0 -- -- 85
2020-03-19 22:00:00 15.8 27 Este 40 Este 0 -- -- 86
2020-03-19 21:00:00 15.7 10 Este 21 Este 0 -- -- 90
2020-03-19 20:00:00 15.6 12 Este 22 Nordeste 0 -- -- 90
2020-03-19 19:00:00 15.8 11 Este 36 Este 0 -- -- 88
2020-03-19 18:00:00 15.9 28 Este 38 Este 0 -- -- 87
2020-03-19 17:00:00 16.6 12 Este 27 Nordeste 0 -- -- 84
2020-03-19 16:00:00 16.5 14 Este 29 Este 0 -- -- 84
2020-03-19 15:00:00 16.1 13 Este 38 Este 0 -- -- 86
2020-03-19 14:00:00 15.9 27 Este 45 Este 0 -- -- 86
2020-03-19 13:00:00 16.1 34 Este 46 Este 0 -- -- 85
2020-03-19 12:00:00 15.9 19 Este 43 Este 0 -- -- 86
2020-03-19 11:00:00 16 14 Este 34 Este 0 -- -- 88
2020-03-19 10:00:00 15.8 11 Este 26 Nordeste 0 -- -- 89
2020-03-19 09:00:00 15.6 10 Este 29 Este 0 -- -- 89
2020-03-19 08:00:00 15.6 15 Nordeste 31 Nordeste 0 -- -- 88
2020-03-19 07:00:00 15.5 14 Este 33 Nordeste 0 -- -- 87
2020-03-19 06:00:00 15.5 12 Nordeste 26 Este 0 -- -- 90
2020-03-19 05:00:00 15.6 12 Este 44 Este 0 -- -- 89
2020-03-19 04:00:00 15.7 34 Este 45 Este 0 -- -- 89
2020-03-19 03:00:00 15.8 30 Este 40 Este 0 -- -- 89
2020-03-19 02:00:00 15.7 21 Este 44 Este 0 -- -- 91
2020-03-19 01:00:00 15.8 22 Este 45 Este 0 -- -- 90
2020-03-19 00:00:00 15.8 18 Este 34 Este 0 -- -- 89
2020-03-18 23:00:00 15.9 17 Este 40 Este 0 -- -- 90
2020-03-18 22:00:00 15.8 12 Este 27 Este 0 -- -- 91
2020-03-18 21:00:00 15.7 10 Este 21 Este 0 -- -- 90
2020-03-18 20:00:00 15.8 16 Este 23 Este 0 -- -- 89
2020-03-18 19:00:00 16.1 12 Este 31 Este 0 -- -- 86
2020-03-18 18:00:00 16.4 10 Este 35 Este 0 -- -- 85
2020-03-18 17:00:00 16.5 29 Este 38 Este 0 -- -- 83
2020-03-18 16:00:00 16.8 34 Este 49 Este 0 -- -- 82
2020-03-18 15:00:00 16.5 38 Este 68 Este 0 -- -- 84
2020-03-18 14:00:00 16.3 52 Este 66 Este 0 -- -- 84
2020-03-18 13:00:00 16.1 20 Este 39 Este 0 -- -- 86
2020-03-18 12:00:00 16.1 22 Este 60 Este 0 -- -- 85
2020-03-18 11:00:00 16.1 32 Este 55 Este 0 -- -- 85
2020-03-18 10:00:00 15.8 31 Este 54 Este 0 -- -- 86
2020-03-18 09:00:00 15.8 33 Este 49 Este 0 -- -- 87
2020-03-18 08:00:00 15.8 35 Este 59 Este 0 -- -- 87
2020-03-18 07:00:00 15.9 42 Este 59 Este 0 -- -- 87
2020-03-18 06:00:00 16 42 Este 53 Este 0 -- -- 87
2020-03-18 05:00:00 15.8 26 Este 44 Este 0 -- -- 88
2020-03-18 04:00:00 15.8 24 Este 48 Este 0 -- -- 88
2020-03-18 03:00:00 15.9 26 Este 51 Nordeste 0 -- -- 88
2020-03-18 02:00:00 15.9 28 Este 61 Este 0 -- -- 89
2020-03-18 01:00:00 16.1 53 Este 70 Este 0 -- -- 90
2020-03-18 00:00:00 16.1 44 Este 75 Este 0 -- -- 90
2020-03-17 23:00:00 15.4 14 Este 29 Este 0 -- -- 89
2020-03-17 22:00:00 15.3 14 Este 30 Este 0 -- -- 89
2020-03-17 21:00:00 15.1 13 Este 28 Este 0 -- -- 87
2020-03-17 20:00:00 15.1 14 Nordeste 42 Este 0.2 -- -- 85
2020-03-17 19:00:00 15.3 33 Este 49 Este 0 -- -- 84
2020-03-17 18:00:00 15.3 15 Este 53 Este 0 -- -- 83
2020-03-17 17:00:00 15.7 25 Este 53 Este 0 -- -- 80
2020-03-17 16:00:00 16.3 24 Este 44 Este 0 -- -- 79
2020-03-17 15:00:00 16.2 21 Este 54 Este 0 -- -- 75
2020-03-17 14:00:00 15.7 18 Nordeste 34 Este 0 -- -- 76
2020-03-17 13:00:00 15.2 16 Este 30 Nordeste 0 -- -- 75
2020-03-17 12:00:00 14.1 14 Nordeste 28 Nordeste 0 -- -- 77
2020-03-17 11:00:00 13.4 12 Nordeste 23 Nordeste 0 -- -- 79
2020-03-17 10:00:00 11.4 5 Noroeste 10 Norte 0 -- -- 92
2020-03-17 09:00:00 10.6 6 Norte 27 Nordeste 0.2 -- -- 91
2020-03-17 08:00:00 10.8 8 Este 20 Este 3.4 -- -- 89
2020-03-17 07:00:00 10.5 11 Nordeste 20 Nordeste 1 -- -- 91
2020-03-17 06:00:00 9.1 8 Norte 25 Oeste 4.4 -- -- 90
2020-03-17 05:00:00 10.1 8 Norte 13 Noroeste 0 -- -- 71
2020-03-17 04:00:00 10.7 8 Noroeste 12 Noroeste 0 -- -- 68
2020-03-17 03:00:00 10.8 4 Noroeste 9 Noroeste 0 -- -- 70
2020-03-17 02:00:00 10.8 4 Noroeste 12 Sudoeste 0 -- -- 69
2020-03-17 01:00:00 11 7 Noroeste 15 Noroeste 0 -- -- 63
2020-03-17 00:00:00 10.9 6 Oeste 18 Oeste 0 -- -- 60
2020-03-16 23:00:00 13.1 9 Oeste 19 Noroeste 0 -- -- 54
2020-03-16 22:00:00 13.2 9 Oeste 18 Oeste 0 -- -- 54
2020-03-16 21:00:00 12.4 12 Sudoeste 17 Oeste 0 -- -- 56
2020-03-16 20:00:00 13.3 10 Oeste 27 Oeste 0 -- -- 49
2020-03-16 19:00:00 15.8 18 Oeste 39 Oeste 0 -- -- 41
2020-03-16 18:00:00 17.1 17 Oeste 38 Oeste 0 -- -- 42
2020-03-16 17:00:00 15.9 26 Sudoeste 45 Sudoeste 0 -- -- 49
2020-03-16 16:00:00 18 27 Oeste 45 Oeste 0 -- -- 43
2020-03-16 15:00:00 18 24 Oeste 42 Oeste 0 -- -- 37
2020-03-16 14:00:00 17.4 19 Noroeste 40 Oeste 0 -- -- 36
2020-03-16 13:00:00 17.1 25 Oeste 38 Oeste 0 -- -- 37
2020-03-16 12:00:00 15.8 21 Noroeste 38 Oeste 0 -- -- 43
2020-03-16 11:00:00 14.9 20 Noroeste 40 Oeste 0 -- -- 42
2020-03-16 10:00:00 12.5 22 Oeste 43 Oeste 0 -- -- 51
2020-03-16 09:00:00 12.6 24 Noroeste 44 Oeste 0 -- -- 52
2020-03-16 08:00:00 12.3 17 Oeste 40 Noroeste 0 -- -- 62
2020-03-16 07:00:00 13.4 17 Noroeste 33 Noroeste 0 -- -- 74
2020-03-16 06:00:00 13.8 19 Oeste 35 Noroeste 0 -- -- 82
2020-03-16 05:00:00 14.1 11 Noroeste 20 Oeste 0 -- -- 95
2020-03-16 04:00:00 14 2 Noroeste 10 Noroeste 0 -- -- 95
2020-03-16 03:00:00 14 5 Noroeste 9 Noroeste 0 -- -- 95
2020-03-16 02:00:00 14.2 4 Norte 8 Norte 0 -- -- 95
2020-03-16 01:00:00 13.7 4 Noroeste 11 Norte 0 -- -- 95
2020-03-16 00:00:00 13 5 Noroeste 8 Noroeste 0 -- -- 95
2020-03-15 23:00:00 12.8 4 Oeste 9 Oeste 0 -- -- 92
2020-03-15 22:00:00 14.6 0 Calma 9 Noroeste 0 -- -- 91
2020-03-15 21:00:00 15.6 4 Nordeste 12 Este 0 -- -- 91
2020-03-15 20:00:00 16.2 9 Este 15 Este 0 -- -- 89
2020-03-15 19:00:00 17.6 6 Este 13 Este 0 -- -- 81
2020-03-15 18:00:00 18.3 4 Este 15 Este 0 -- -- 80
2020-03-15 17:00:00 18.4 10 Este 17 Este 0 -- -- 80
2020-03-15 16:00:00 18 6 Este 21 Este 0 -- -- 82
2020-03-15 15:00:00 19 7 Este 24 Este 0 -- -- 77
2020-03-15 14:00:00 18.9 18 Este 25 Este 0 -- -- 77
2020-03-15 13:00:00 20.3 8 Este 17 Este 0 -- -- 74
2020-03-15 12:00:00 18.4 8 Este 18 Nordeste 0 -- -- 82
2020-03-15 11:00:00 18 8 Nordeste 18 Este 0 -- -- 85
2020-03-15 10:00:00 17 7 Este 19 Este 0 -- -- 90
2020-03-15 09:00:00 15.8 7 Este 21 Este 0 -- -- 92
2020-03-15 08:00:00 15.6 8 Este 16 Este 0 -- -- 92
2020-03-15 07:00:00 15.3 6 Este 20 Nordeste 0 -- -- 91
2020-03-15 06:00:00 15.3 12 Nordeste 20 Nordeste 0 -- -- 90
2020-03-15 05:00:00 15.3 12 Nordeste 21 Nordeste 0 -- -- 92
2020-03-15 04:00:00 15.2 13 Nordeste 21 Nordeste 0 -- -- 93
2020-03-15 03:00:00 15.5 8 Nordeste 19 Nordeste 0 -- -- 93
2020-03-15 02:00:00 15.6 7 Este 18 Este 0 -- -- 94
2020-03-15 01:00:00 15.4 7 Este 26 Este 0 -- -- 94
2020-03-15 00:00:00 15.5 6 Este 13 Este 0 -- -- 95
2020-03-14 23:00:00 15.4 4 Este 10 Este 0 -- -- 95
2020-03-14 22:00:00 15.4 4 Este 10 Nordeste 0 -- -- 95
2020-03-14 21:00:00 15.5 6 Nordeste 11 Nordeste 0 -- -- 94
2020-03-14 20:00:00 15.9 6 Nordeste 9 Nordeste 0 -- -- 91
2020-03-14 19:00:00 17.2 3 Este 11 Este 0 -- -- 84
2020-03-14 18:00:00 18.1 8 Este 12 Este 0 -- -- 83
2020-03-14 17:00:00 19.2 11 Este 15 Este 0 -- -- 80
2020-03-14 16:00:00 20 6 Este 20 Este 0 -- -- 76
2020-03-14 15:00:00 18.8 16 Este 21 Este 0 -- -- 79
2020-03-14 14:00:00 19.1 15 Este 18 Este 0 -- -- 78
2020-03-14 13:00:00 19.2 6 Este 13 Nordeste 0 -- -- 79
2020-03-14 12:00:00 18.1 6 Nordeste 12 Este 0 -- -- 79
2020-03-14 11:00:00 17.2 6 Nordeste 12 Nordeste 0 -- -- 81
2020-03-14 10:00:00 15.9 3 Norte 10 Noroeste 0 -- -- 87
2020-03-14 09:00:00 14.2 7 Noroeste 12 Noroeste 0 -- -- 91
2020-03-14 08:00:00 12.8 8 Noroeste 12 Noroeste 0 -- -- 93
2020-03-14 07:00:00 13.7 6 Noroeste 11 Nordeste 0 -- -- 92
2020-03-14 06:00:00 15 5 Norte 16 Norte 0 -- -- 91
2020-03-14 05:00:00 15.3 9 Nordeste 15 Norte 0 -- -- 93
2020-03-14 04:00:00 15 5 Norte 12 Nordeste 0 -- -- 95
2020-03-14 03:00:00 15.5 6 Norte 12 Nordeste 0 -- -- 95
2020-03-14 02:00:00 15.5 3 Norte 9 Norte 0 -- -- 94
2020-03-14 01:00:00 15.5 5 Norte 13 Norte 0 -- -- 94
2020-03-14 00:00:00 16.1 4 Norte 11 Nordeste 0 -- -- 93
2020-03-13 23:00:00 16.3 5 Nordeste 11 Nordeste 0 -- -- 93
2020-03-13 22:00:00 16 4 Norte 9 Norte 0 -- -- 88
2020-03-13 21:00:00 16.7 5 Norte 12 Norte 0 -- -- 80
2020-03-13 20:00:00 18.1 2 Norte 19 Oeste 0 -- -- 70
2020-03-13 19:00:00 19.8 16 Oeste 36 Oeste 0 -- -- 65
2020-03-13 18:00:00 22.7 21 Oeste 36 Oeste 0 -- -- 56
2020-03-13 17:00:00 23.3 26 Oeste 40 Oeste 0 -- -- 53
2020-03-13 16:00:00 23.1 24 Oeste 36 Oeste 0 -- -- 52
2020-03-13 15:00:00 22.9 23 Oeste 42 Oeste 0 -- -- 50
2020-03-13 14:00:00 21.7 24 Oeste 40 Oeste 0 -- -- 53
2020-03-13 13:00:00 20.5 21 Oeste 43 Oeste 0 -- -- 61
2020-03-13 12:00:00 19.2 23 Oeste 40 Oeste 0 -- -- 65
2020-03-13 11:00:00 18.7 25 Oeste 36 Oeste 0 -- -- 67
2020-03-13 10:00:00 17.2 16 Oeste 28 Noroeste 0 -- -- 75
2020-03-13 09:00:00 15.2 13 Noroeste 29 Oeste 0 -- -- 83
2020-03-13 08:00:00 14.1 14 Oeste 26 Oeste 0 -- -- 87
2020-03-13 07:00:00 13.9 11 Oeste 25 Oeste 0 -- -- 88
2020-03-13 06:00:00 14.2 17 Oeste 26 Noroeste 0 -- -- 86
2020-03-13 05:00:00 13.2 5 Noroeste 18 Oeste 0 -- -- 88
2020-03-13 04:00:00 12.2 6 Norte 10 Norte 0 -- -- 87
2020-03-13 03:00:00 12.5 5 Noroeste 12 Norte 0 -- -- 89
2020-03-13 02:00:00 13.6 7 Noroeste 9 Noroeste 0 -- -- 89
2020-03-13 01:00:00 13.9 0 Calma 6 Noroeste 0 -- -- 84
2020-03-13 00:00:00 15.8 0 Calma 9 Noroeste 0 -- -- 81
2020-03-12 23:00:00 16.6 0 Calma 16 Noroeste 0 -- -- 77
2020-03-12 22:00:00 16 5 Oeste 10 Oeste 0 -- -- 74
2020-03-12 21:00:00 15.5 3 Oeste 7 Norte 0 -- -- 70
2020-03-12 20:00:00 17 3 Noroeste 4 Noroeste 0 -- -- 71
2020-03-12 19:00:00 19.3 0 Calma 6 Sur 0 -- -- 74
2020-03-12 18:00:00 20.6 4 Sudeste 10 Sur 0 -- -- 69
2020-03-12 17:00:00 21.8 8 Sudeste 10 Sudeste 0 -- -- 61
2020-03-12 16:00:00 22.5 8 Sudeste 9 Sur 0 -- -- 59
2020-03-12 15:00:00 22.5 6 Sur 9 Sur 0 -- -- 51
2020-03-12 14:00:00 22.6 7 Sur 14 Sur 0 -- -- 48
2020-03-12 13:00:00 22.6 8 Sur 12 Sur 0 -- -- 52
2020-03-12 12:00:00 20.9 6 Sur 10 Sur 0 -- -- 57
2020-03-12 11:00:00 18.7 5 Noroeste 14 Noroeste 0 -- -- 67
2020-03-12 10:00:00 15.2 9 Noroeste 17 Noroeste 0 -- -- 76
2020-03-12 09:00:00 11.6 13 Noroeste 18 Noroeste 0 -- -- 86
2020-03-12 08:00:00 9.8 13 Noroeste 17 Noroeste 0 -- -- 89
2020-03-12 07:00:00 9.9 11 Noroeste 15 Noroeste 0 -- -- 89
2020-03-12 06:00:00 10.5 10 Noroeste 12 Noroeste 0 -- -- 87
2020-03-12 05:00:00 10.9 9 Noroeste 14 Noroeste 0 -- -- 86
2020-03-12 04:00:00 11.4 8 Noroeste 19 Noroeste 0 -- -- 84
2020-03-12 03:00:00 11 13 Noroeste 19 Noroeste 0 -- -- 87
2020-03-12 02:00:00 11.7 12 Noroeste 20 Noroeste 0 -- -- 85
2020-03-12 01:00:00 11.9 13 Noroeste 18 Noroeste 0 -- -- 85
2020-03-12 00:00:00 12.7 10 Noroeste 15 Noroeste 0 -- -- 83
2020-03-11 23:00:00 13.2 8 Noroeste 14 Noroeste 0 -- -- 83
2020-03-11 22:00:00 13.2 5 Noroeste 8 Noroeste 0 -- -- 82
2020-03-11 21:00:00 15.1 6 Norte 8 Noroeste 0 -- -- 78
2020-03-11 20:00:00 16.7 4 Norte 6 Norte 0 -- -- 71
2020-03-11 19:00:00 19.7 4 Sur 12 Sur 0 -- -- 60
2020-03-11 18:00:00 20 8 Sur 15 Sur 0 -- -- 57
2020-03-11 17:00:00 20.3 11 Sur 14 Sur 0 -- -- 56
2020-03-11 16:00:00 20.5 7 Sur 12 Sudeste 0 -- -- 55
2020-03-11 15:00:00 19.6 4 Sur 6 Este 0 -- -- 58
2020-03-11 14:00:00 19.8 4 Este 11 Nordeste 0 -- -- 60
2020-03-11 13:00:00 19 6 Nordeste 17 Nordeste 0 -- -- 66
2020-03-11 12:00:00 18 12 Nordeste 19 Nordeste 0 -- -- 66
2020-03-11 11:00:00 17.7 10 Nordeste 17 Nordeste 0 -- -- 68
2020-03-11 10:00:00 16.9 9 Nordeste 16 Nordeste 0 -- -- 75
2020-03-11 09:00:00 13.8 5 Noroeste 8 Noroeste 0 -- -- 78
2020-03-11 08:00:00 11.3 5 Norte 8 Noroeste 0 -- -- 84
2020-03-11 07:00:00 11.3 0 Calma 4 Oeste 0 -- -- 82
2020-03-11 06:00:00 14.5 3 Nordeste 13 Nordeste 0 -- -- 74
2020-03-11 05:00:00 15.4 9 Nordeste 17 Este 0 -- -- 73
2020-03-11 04:00:00 15.4 11 Nordeste 17 Nordeste 0 -- -- 74
2020-03-11 03:00:00 15.4 10 Nordeste 17 Nordeste 0 -- -- 68
2020-03-11 02:00:00 15.6 11 Nordeste 20 Nordeste 0 -- -- 71
2020-03-11 01:00:00 16 13 Nordeste 20 Nordeste 0 -- -- 67
2020-03-11 00:00:00 15.9 11 Nordeste 18 Nordeste 0 -- -- 69
2020-03-10 23:00:00 15.7 11 Nordeste 17 Nordeste 0 -- -- 68
2020-03-10 22:00:00 15.5 8 Nordeste 17 Nordeste 0 -- -- 77
2020-03-10 21:00:00 15.9 10 Nordeste 16 Nordeste 0 -- -- 77
2020-03-10 20:00:00 16.2 7 Nordeste 18 Nordeste 0 -- -- 76
2020-03-10 19:00:00 17.1 12 Nordeste 19 Nordeste 0 -- -- 69
2020-03-10 18:00:00 17.5 12 Nordeste 19 Nordeste 0 -- -- 74
2020-03-10 17:00:00 17.7 14 Nordeste 27 Nordeste 0 -- -- 79
2020-03-10 16:00:00 17.9 19 Nordeste 28 Nordeste 0 -- -- 80
2020-03-10 15:00:00 18.7 11 Nordeste 23 Este 0 -- -- 75
2020-03-10 14:00:00 19.9 12 Este 25 Este 0 -- -- 67
2020-03-10 13:00:00 19.8 6 Sudeste 10 Sudeste 0 -- -- 69
2020-03-10 12:00:00 18.8 4 Nordeste 9 Nordeste 0 -- -- 69
2020-03-10 11:00:00 19.1 5 Nordeste 12 Nordeste 0 -- -- 68
2020-03-10 10:00:00 17.7 4 Norte 12 Noroeste 0 -- -- 60
2020-03-10 09:00:00 13.8 8 Noroeste 12 Noroeste 0 -- -- 67
2020-03-10 08:00:00 11.5 6 Noroeste 15 Noroeste 0 -- -- 71
2020-03-10 07:00:00 11.5 8 Oeste 20 Noroeste 0 -- -- 70
2020-03-10 06:00:00 12.4 12 Noroeste 19 Noroeste 0 -- -- 69
2020-03-10 05:00:00 13.4 9 Noroeste 16 Noroeste 0 -- -- 66
2020-03-10 04:00:00 14.1 10 Noroeste 14 Noroeste 0 -- -- 64
2020-03-10 03:00:00 15.2 3 Noroeste 16 Noroeste 0 -- -- 58
2020-03-10 02:00:00 16.8 11 Noroeste 23 Oeste 0 -- -- 54
2020-03-10 01:00:00 16.1 10 Oeste 25 Oeste 0 -- -- 54
2020-03-10 00:00:00 17.7 16 Oeste 25 Oeste 0 -- -- 50
2020-03-09 23:00:00 18.4 4 Noroeste 32 Noroeste 0 -- -- 49
2020-03-09 22:00:00 18.7 17 Noroeste 35 Noroeste 0 -- -- 48
2020-03-09 21:00:00 19 21 Noroeste 36 Oeste 0 -- -- 48
2020-03-09 20:00:00 20.9 18 Oeste 35 Oeste 0 -- -- 41
2020-03-09 19:00:00 23.2 21 Noroeste 36 Oeste 0 -- -- 29
2020-03-09 18:00:00 25.4 19 Noroeste 36 Oeste 0 -- -- 29
2020-03-09 17:00:00 25.6 15 Oeste 30 Sudoeste 0 -- -- 29
2020-03-09 16:00:00 25.3 5 Nordeste 30 Noroeste 0 -- -- 42
2020-03-09 15:00:00 26.7 14 Noroeste 28 Noroeste 0 -- -- 27
2020-03-09 14:00:00 23.7 17 Sudeste 29 Noroeste 0 -- -- 43
2020-03-09 13:00:00 26.1 15 Noroeste 29 Oeste 0 -- -- 23
2020-03-09 12:00:00 24.1 9 Noroeste 24 Noroeste 0 -- -- 29
2020-03-09 11:00:00 21.1 4 Noroeste 15 Noroeste 0 -- -- 44
2020-03-09 10:00:00 17.2 6 Norte 18 Noroeste 0 -- -- 56
2020-03-09 09:00:00 12.8 9 Noroeste 17 Noroeste 0 -- -- 63
2020-03-09 08:00:00 11.6 8 Norte 16 Este 0 -- -- 64
2020-03-09 07:00:00 15.1 10 Noroeste 19 Noroeste 0 -- -- 51
2020-03-09 06:00:00 13.1 8 Noroeste 18 Noroeste 0 -- -- 58
2020-03-09 05:00:00 12.5 8 Noroeste 21 Noroeste 0 -- -- 64
2020-03-09 04:00:00 12.5 14 Noroeste 22 Noroeste 0 -- -- 67
2020-03-09 03:00:00 12.3 12 Noroeste 17 Norte 0 -- -- 70
2020-03-09 02:00:00 12.6 13 Noroeste 21 Noroeste 0 -- -- 71
2020-03-09 01:00:00 13 14 Noroeste 21 Noroeste 0 -- -- 72
2020-03-09 00:00:00 12.9 7 Noroeste 13 Norte 0 -- -- 79
2020-03-08 23:00:00 12.7 9 Noroeste 13 Noroeste 0 -- -- 82
2020-03-08 22:00:00 13.3 3 Nordeste 14 Nordeste 0 -- -- 81
2020-03-08 21:00:00 13.3 5 Noroeste 8 Noroeste 0 -- -- 84
2020-03-08 20:00:00 14.6 4 Oeste 9 Sur 0 -- -- 82
2020-03-08 19:00:00 16.7 6 Sur 8 Sur 0 -- -- 82
2020-03-08 18:00:00 17.4 6 Sur 12 Sudeste 0 -- -- 80
2020-03-08 17:00:00 17.8 11 Sur 14 Sudeste 0 -- -- 79
2020-03-08 16:00:00 18.2 10 Sur 13 Sur 0 -- -- 77
2020-03-08 15:00:00 18.5 11 Sudeste 14 Sudeste 0 -- -- 76
2020-03-08 14:00:00 18 9 Sudeste 13 Sudeste 0 -- -- 73
2020-03-08 13:00:00 17.7 6 Sudeste 10 Este 0 -- -- 72
2020-03-08 12:00:00 17.1 5 Este 8 Este 0 -- -- 70
2020-03-08 11:00:00 15.8 4 Nordeste 15 Noroeste 0 -- -- 73
2020-03-08 10:00:00 11.7 9 Noroeste 19 Noroeste 0 -- -- 70
2020-03-08 09:00:00 8.4 13 Noroeste 21 Norte 0 -- -- 82
2020-03-08 08:00:00 6.8 12 Noroeste 17 Noroeste 0 -- -- 90
2020-03-08 07:00:00 7.4 10 Noroeste 14 Noroeste 0 -- -- 89
2020-03-08 06:00:00 7.3 8 Noroeste 14 Norte 0 -- -- 88
2020-03-08 05:00:00 6.9 8 Noroeste 15 Noroeste 0 -- -- 88
2020-03-08 04:00:00 7.2 11 Noroeste 21 Noroeste 0 -- -- 88
2020-03-08 03:00:00 7.9 12 Noroeste 16 Noroeste 0 -- -- 88
2020-03-08 02:00:00 8.4 10 Noroeste 15 Noroeste 0 -- -- 85
2020-03-08 01:00:00 9.4 10 Noroeste 15 Noroeste 0 -- -- 85
2020-03-08 00:00:00 10 11 Noroeste 14 Noroeste 0 -- -- 84
2020-03-07 23:00:00 10.3 4 Noroeste 8 Noroeste 0 -- -- 82
2020-03-07 22:00:00 11.2 2 Sudeste 12 Oeste 0 -- -- 75
2020-03-07 21:00:00 11.4 5 Sudoeste 10 Sudoeste 0 -- -- 73
2020-03-07 20:00:00 14.4 3 Noroeste 8 Noroeste 0 -- -- 68
2020-03-07 19:00:00 16.4 4 Nordeste 6 Nordeste 0 -- -- 67
2020-03-07 18:00:00 18 3 Este 11 Este 0 -- -- 63
2020-03-07 17:00:00 18.6 7 Sudeste 14 Sur 0 -- -- 64
2020-03-07 16:00:00 18.9 11 Sur 17 Sur 0 -- -- 58
2020-03-07 15:00:00 19.2 10 Sur 14 Sur 0 -- -- 53
2020-03-07 14:00:00 19.3 12 Sur 17 Sur 0 -- -- 47
2020-03-07 13:00:00 19.2 11 Sur 15 Sur 0 -- -- 54
2020-03-07 12:00:00 18.7 4 Este 12 Nordeste 0 -- -- 42
2020-03-07 11:00:00 16.9 5 Norte 17 Norte 0 -- -- 49
2020-03-07 10:00:00 13.3 10 Noroeste 20 Noroeste 0 -- -- 63
2020-03-07 09:00:00 9.9 12 Noroeste 18 Noroeste 0 -- -- 75
2020-03-07 08:00:00 8.2 11 Noroeste 18 Norte 0 -- -- 81
2020-03-07 07:00:00 8.1 5 Noroeste 18 Noroeste 0 -- -- 77
2020-03-07 06:00:00 9.5 8 Noroeste 16 Noroeste 0 -- -- 77
2020-03-07 05:00:00 10 10 Noroeste 18 Noroeste 0 -- -- 75
2020-03-07 04:00:00 10.6 12 Noroeste 19 Norte 0 -- -- 74
2020-03-07 03:00:00 11.3 9 Noroeste 14 Noroeste 0 -- -- 71
2020-03-07 02:00:00 12.2 7 Noroeste 30 Oeste 0 -- -- 69
2020-03-07 01:00:00 13 14 Noroeste 23 Oeste 0 -- -- 66
2020-03-07 00:00:00 13.2 9 Noroeste 25 Oeste 0 -- -- 71
2020-03-06 23:00:00 13.1 18 Oeste 25 Oeste 0 -- -- 76
2020-03-06 22:00:00 13.3 6 Sudoeste 29 Oeste 0 -- -- 72
2020-03-06 21:00:00 14.5 23 Oeste 34 Oeste 0 -- -- 69
2020-03-06 20:00:00 14.7 18 Sudoeste 32 Sudoeste 0 -- -- 63
2020-03-06 19:00:00 16.8 18 Sudoeste 37 Oeste 0 -- -- 56
2020-03-06 18:00:00 18.8 24 Oeste 41 Oeste 0 -- -- 52
2020-03-06 17:00:00 19.7 24 Oeste 41 Noroeste 0 -- -- 48
2020-03-06 16:00:00 19.6 29 Oeste 45 Sudoeste 0 -- -- 45
2020-03-06 15:00:00 19.6 27 Oeste 48 Oeste 0 -- -- 48
2020-03-06 14:00:00 18.8 26 Noroeste 48 Oeste 0 -- -- 49
2020-03-06 13:00:00 18.1 27 Oeste 51 Oeste 0 -- -- 53
2020-03-06 12:00:00 16.1 18 Noroeste 36 Noroeste 0 -- -- 61
2020-03-06 11:00:00 15.2 15 Noroeste 41 Oeste 0 -- -- 65
2020-03-06 10:00:00 14.1 21 Oeste 37 Noroeste 0 -- -- 70
2020-03-06 09:00:00 12.5 20 Oeste 38 Oeste 0 -- -- 73
2020-03-06 08:00:00 10.9 16 Oeste 34 Oeste 0 -- -- 75
2020-03-06 07:00:00 11.2 20 Oeste 39 Noroeste 0 -- -- 73
2020-03-06 06:00:00 11.6 26 Oeste 42 Oeste 0 -- -- 72
2020-03-06 05:00:00 12 23 Noroeste 45 Noroeste 0 -- -- 72
2020-03-06 04:00:00 12.4 22 Oeste 42 Noroeste 0 -- -- 70
2020-03-06 03:00:00 13 22 Noroeste 38 Noroeste 0 -- -- 69
2020-03-06 02:00:00 13.5 18 Noroeste 35 Noroeste 0 -- -- 69
2020-03-06 01:00:00 12.8 16 Oeste 27 Oeste 0 -- -- 77
2020-03-06 00:00:00 12.9 12 Oeste 21 Oeste 0 -- -- 86
2020-03-05 23:00:00 13.1 10 Sudoeste 29 Oeste 0 -- -- 86
2020-03-05 22:00:00 14 20 Oeste 36 Oeste 0 -- -- 83
2020-03-05 21:00:00 14.7 19 Oeste 35 Oeste 0 -- -- 77
2020-03-05 20:00:00 15.1 15 Oeste 27 Sudoeste 0 -- -- 75
2020-03-05 19:00:00 16.7 13 Oeste 40 Oeste 0 -- -- 71
2020-03-05 18:00:00 17.4 20 Oeste 39 Oeste 0 -- -- 73
2020-03-05 17:00:00 17.9 22 Oeste 39 Noroeste 0 -- -- 77
2020-03-05 16:00:00 17.7 19 Oeste 46 Noroeste 0 -- -- 76
2020-03-05 15:00:00 18.3 27 Oeste 47 Noroeste 0 -- -- 73
2020-03-05 14:00:00 19.7 25 Oeste 44 Oeste 0 -- -- 66
2020-03-05 13:00:00 18.5 28 Oeste 52 Oeste 0 -- -- 67
2020-03-05 12:00:00 18.5 19 Oeste 33 Oeste 0 -- -- 67
2020-03-05 11:00:00 17.2 26 Oeste 49 Oeste 0 -- -- 73
2020-03-05 10:00:00 15.6 27 Oeste 41 Oeste 0 -- -- 80
2020-03-05 09:00:00 14.8 20 Oeste 32 Oeste 0 -- -- 83
2020-03-05 08:00:00 12.6 13 Oeste 21 Oeste 0 -- -- 88
2020-03-05 07:00:00 13.3 17 Oeste 25 Oeste 0 -- -- 87
2020-03-05 06:00:00 13.1 13 Oeste 22 Oeste 0 -- -- 88
2020-03-05 05:00:00 14.1 12 Oeste 30 Oeste 0 -- -- 83
2020-03-05 04:00:00 14.5 21 Oeste 35 Oeste 0 -- -- 81
2020-03-05 03:00:00 14.6 21 Oeste 37 Oeste 0 -- -- 80
2020-03-05 02:00:00 15 23 Oeste 43 Oeste 0 -- -- 78
2020-03-05 01:00:00 15 24 Oeste 40 Oeste 0 -- -- 78
2020-03-05 00:00:00 15.3 26 Oeste 38 Oeste 0 -- -- 78
2020-03-04 23:00:00 15.3 17 Noroeste 31 Oeste 0 -- -- 80
2020-03-04 22:00:00 15.6 18 Oeste 32 Oeste 0 -- -- 80
2020-03-04 21:00:00 16.5 23 Oeste 37 Oeste 0 -- -- 75
2020-03-04 20:00:00 18 22 Oeste 36 Oeste 0 -- -- 69
2020-03-04 19:00:00 21 16 Oeste 31 Noroeste 0 -- -- 55
2020-03-04 18:00:00 22.5 19 Noroeste 33 Oeste 0 -- -- 51
2020-03-04 17:00:00 23.1 18 Noroeste 36 Noroeste 0 -- -- 50
2020-03-04 16:00:00 23.5 18 Noroeste 40 Oeste 0 -- -- 50
2020-03-04 15:00:00 23.1 27 Oeste 43 Oeste 0 -- -- 52
2020-03-04 14:00:00 22.9 26 Oeste 44 Oeste 0 -- -- 50
2020-03-04 13:00:00 22.1 25 Oeste 39 Noroeste 0 -- -- 53
2020-03-04 12:00:00 20.3 20 Noroeste 45 Noroeste 0 -- -- 61
2020-03-04 11:00:00 19.2 23 Noroeste 41 Noroeste 0 -- -- 65
2020-03-04 10:00:00 17.3 24 Oeste 40 Oeste 0 -- -- 76
2020-03-04 09:00:00 15.1 26 Oeste 38 Oeste 0 -- -- 87
2020-03-04 08:00:00 13.8 21 Oeste 33 Noroeste 0 -- -- 91
2020-03-04 07:00:00 14 22 Oeste 32 Oeste 0 -- -- 89
2020-03-04 06:00:00 14.5 20 Oeste 32 Oeste 0 -- -- 89
2020-03-04 05:00:00 14.7 19 Oeste 26 Oeste 0 -- -- 89
2020-03-04 04:00:00 15 19 Oeste 28 Oeste 0 -- -- 90
2020-03-04 03:00:00 15.3 18 Oeste 32 Oeste 0 -- -- 90
2020-03-04 02:00:00 15.6 21 Oeste 33 Oeste 0 -- -- 89
2020-03-04 01:00:00 15.6 18 Oeste 30 Oeste 0 -- -- 87
2020-03-04 00:00:00 15.8 13 Oeste 25 Oeste 0 -- -- 85
2020-03-03 23:00:00 15.4 11 Oeste 21 Sudoeste 0 -- -- 85
2020-03-03 22:00:00 14.9 9 Sudoeste 18 Sudoeste 0 -- -- 82
2020-03-03 21:00:00 15.3 11 Oeste 30 Oeste 0 -- -- 79
2020-03-03 20:00:00 16 17 Oeste 27 Oeste 0 -- -- 74
2020-03-03 19:00:00 17.4 14 Oeste 34 Sudoeste 0 -- -- 68
2020-03-03 18:00:00 19 21 Oeste 40 Oeste 0 -- -- 60
2020-03-03 17:00:00 19.1 26 Oeste 45 Oeste 0 -- -- 58
2020-03-03 16:00:00 19.7 30 Oeste 48 Oeste 0 -- -- 55
2020-03-03 15:00:00 20.5 28 Oeste 47 Oeste 0 -- -- 54
2020-03-03 14:00:00 19.6 27 Oeste 47 Oeste 0 -- -- 55
2020-03-03 13:00:00 18.5 26 Oeste 48 Oeste 0 -- -- 57
2020-03-03 12:00:00 17.5 21 Oeste 48 Oeste 0 -- -- 58
2020-03-03 11:00:00 15.7 19 Noroeste 35 Noroeste 0 -- -- 67
2020-03-03 10:00:00 13.9 18 Oeste 27 Oeste 0 -- -- 74
2020-03-03 09:00:00 10.5 8 Oeste 14 Oeste 0 -- -- 89
2020-03-03 08:00:00 9 9 Oeste 15 Oeste 0 -- -- 90
2020-03-03 07:00:00 9.4 13 Sudoeste 18 Oeste 0 -- -- 90
2020-03-03 06:00:00 10 12 Sudoeste 21 Oeste 0 -- -- 88
2020-03-03 05:00:00 10.2 14 Oeste 17 Oeste 0 -- -- 89
2020-03-03 04:00:00 11.7 13 Oeste 21 Oeste 0 -- -- 86
2020-03-03 03:00:00 12.3 8 Oeste 18 Oeste 0 -- -- 87
2020-03-03 02:00:00 12.7 10 Oeste 18 Oeste 0 -- -- 89
2020-03-03 01:00:00 13.1 6 Sudoeste 23 Oeste 0 -- -- 87
2020-03-03 00:00:00 13.7 15 Oeste 30 Oeste 0 -- -- 86
2020-03-02 23:00:00 13.8 18 Oeste 25 Oeste 0 -- -- 83
2020-03-02 22:00:00 14.5 11 Sudoeste 20 Sudoeste 0 -- -- 79
2020-03-02 21:00:00 15.6 3 Sudeste 27 Oeste 0 -- -- 75
2020-03-02 20:00:00 16.3 19 Oeste 40 Oeste 0 -- -- 72
2020-03-02 19:00:00 17.7 25 Oeste 52 Oeste 0 -- -- 71
2020-03-02 18:00:00 19.5 33 Oeste 52 Oeste 0 -- -- 64
2020-03-02 17:00:00 20.7 33 Oeste 59 Oeste 0 -- -- 63
2020-03-02 16:00:00 21.2 30 Oeste 53 Oeste 0 -- -- 60
2020-03-02 15:00:00 21.2 28 Oeste 59 Oeste 0 -- -- 66
2020-03-02 14:00:00 20.6 30 Oeste 52 Oeste 0 -- -- 70
2020-03-02 13:00:00 21.2 37 Oeste 59 Oeste 0 -- -- 71
2020-03-02 12:00:00 20.3 39 Oeste 56 Oeste 0 -- -- 75
2020-03-02 11:00:00 18.4 28 Oeste 48 Oeste 0 -- -- 87
2020-03-02 10:00:00 18.5 28 Oeste 45 Oeste 0 -- -- 80
2020-03-02 09:00:00 17 25 Sudoeste 49 Oeste 0 -- -- 84
2020-03-02 08:00:00 16.7 23 Oeste 44 Oeste 0 -- -- 83
2020-03-02 07:00:00 17.2 27 Oeste 50 Oeste 0 -- -- 83
2020-03-02 06:00:00 16.9 29 Oeste 53 Oeste 0 -- -- 82
2020-03-02 05:00:00 16.6 29 Oeste 51 Oeste 0 -- -- 82
2020-03-02 04:00:00 16.5 26 Oeste 42 Oeste 0 -- -- 83
2020-03-02 03:00:00 16.3 24 Oeste 40 Oeste 0 -- -- 83
2020-03-02 02:00:00 15.6 12 Oeste 21 Oeste 0 -- -- 85
2020-03-02 01:00:00 15 2 Norte 9 Oeste 0 -- -- 85
2020-03-02 00:00:00 15.3 9 Oeste 18 Oeste 0 -- -- 85